地図

経路データ

SID SEASON NUMBER BASIN SUBBASIN NAME ISO_TIME NATURE LAT LON WMO_WIND WMO_PRES WMO_AGENCY TRACK_TYPE DIST2LAND LANDFALL IFLAG USA_AGENCY USA_ATCF_ID USA_LAT USA_LON USA_RECORD USA_STATUS USA_WIND USA_PRES USA_SSHS USA_R34_NE USA_R34_SE USA_R34_SW USA_R34_NW USA_R50_NE USA_R50_SE USA_R50_SW USA_R50_NW USA_R64_NE USA_R64_SE USA_R64_SW USA_R64_NW USA_POCI USA_ROCI USA_RMW USA_EYE TOKYO_LAT TOKYO_LON TOKYO_GRADE TOKYO_WIND TOKYO_PRES TOKYO_R50_DIR TOKYO_R50_LONG TOKYO_R50_SHORT TOKYO_R30_DIR TOKYO_R30_LONG TOKYO_R30_SHORT TOKYO_LAND CMA_LAT CMA_LON CMA_CAT CMA_WIND CMA_PRES HKO_LAT HKO_LON HKO_CAT HKO_WIND HKO_PRES NEWDELHI_LAT NEWDELHI_LON NEWDELHI_GRADE NEWDELHI_WIND NEWDELHI_PRES NEWDELHI_CI NEWDELHI_DP NEWDELHI_POCI REUNION_LAT REUNION_LON REUNION_TYPE REUNION_WIND REUNION_PRES REUNION_TNUM REUNION_CI REUNION_RMW REUNION_R34_NE REUNION_R34_SE REUNION_R34_SW REUNION_R34_NW REUNION_R50_NE REUNION_R50_SE REUNION_R50_SW REUNION_R50_NW REUNION_R64_NE REUNION_R64_SE REUNION_R64_SW REUNION_R64_NW BOM_LAT BOM_LON BOM_TYPE BOM_WIND BOM_PRES BOM_TNUM BOM_CI BOM_RMW BOM_R34_NE BOM_R34_SE BOM_R34_SW BOM_R34_NW BOM_R50_NE BOM_R50_SE BOM_R50_SW BOM_R50_NW BOM_R64_NE BOM_R64_SE BOM_R64_SW BOM_R64_NW BOM_ROCI BOM_POCI BOM_EYE BOM_POS_METHOD BOM_PRES_METHOD NADI_LAT NADI_LON NADI_CAT NADI_WIND NADI_PRES WELLINGTON_LAT WELLINGTON_LON WELLINGTON_WIND WELLINGTON_PRES DS824_LAT DS824_LON DS824_STAGE DS824_WIND DS824_PRES TD9636_LAT TD9636_LON TD9636_STAGE TD9636_WIND TD9636_PRES TD9635_LAT TD9635_LON TD9635_WIND TD9635_PRES TD9635_ROCI NEUMANN_LAT NEUMANN_LON NEUMANN_CLASS NEUMANN_WIND NEUMANN_PRES MLC_LAT MLC_LON MLC_CLASS MLC_WIND MLC_PRES USA_GUST BOM_GUST BOM_GUST_PER REUNION_GUST REUNION_GUST_PER USA_SEAHGT USA_SEARAD_NE USA_SEARAD_SE USA_SEARAD_SW USA_SEARAD_NW STORM_SPEED STORM_DIR
1981061S22047 1981 19 SI MM JOHANNE 1981-03-01 12:00:00 TS -22.0000 47.1000 main 0 0 O_________O_O_ jtwc_sh SH221981 -22.0000 47.1000 10 -1 -22.0000 47.1000 1 10 -22.0000 47.1000 TC 15 4 33
1981061S22047 1981 19 SI MM JOHANNE 1981-03-01 15:00:00 TS -21.8510 47.2011 main 0 0 P_________P_P_ SH221981 -21.8600 47.2000 12 -1 -21.8329 47.2033 1 11 -21.8600 47.2000 TC 15 4 30
1981061S22047 1981 19 SI MM JOHANNE 1981-03-01 18:00:00 TS -21.6875 47.3017 main 0 0 O_________P_O_ jtwc_sh SH221981 -21.7000 47.3000 15 -1 -21.6626 47.3052 1 12 -21.7000 47.3000 TC 15 4 28
1981061S22047 1981 19 SI MM JOHANNE 1981-03-01 21:00:00 TS -21.5003 47.4015 main 0 0 P_________P_P_ SH221981 -21.5075 47.4000 15 -1 -21.4860 47.4045 1 13 -21.5075 47.4000 TC 15 4 26
1981061S22047 1981 19 SI MM JOHANNE 1981-03-02 00:00:00 TS -21.3000 47.5000 main 0 0 O_________O_O_ jtwc_sh SH221981 -21.3000 47.5000 15 -1 -21.3000 47.5000 1 15 -21.3000 47.5000 TC 15 4 24
1981061S22047 1981 19 SI MM JOHANNE 1981-03-02 03:00:00 TS -21.1010 47.5972 main 0 0 P_________P_P_ SH221981 -21.1000 47.6000 15 -1 -21.1031 47.5918 1 15 -21.1000 47.6000 TC 15 4 24
1981061S22047 1981 19 SI MM JOHANNE 1981-03-02 06:00:00 TS -20.9000 47.6950 main 0 0 O_________P_O_ jtwc_sh SH221981 -20.9000 47.7000 15 -1 -20.8999 47.6848 1 15 -20.9000 47.7000 TC 15 4 24
1981061S22047 1981 19 SI MM JOHANNE 1981-03-02 09:00:00 TS -20.6939 47.7901 main 0 0 P_________P_P_ SH221981 -20.6925 47.7925 15 -1 -20.6968 47.7855 1 15 -20.6925 47.7925 TC 15 4 26
1981061S22047 1981 19 SI MM JOHANNE 1981-03-02 12:00:00 TS -20.5000 47.9000 main 0 0 O_________O_O_ jtwc_sh SH221981 -20.5000 47.9000 15 -1 -20.5000 47.9000 1 15 -20.5000 47.9000 TC 15 4 33
1981061S22047 1981 19 SI MM JOHANNE 1981-03-02 15:00:00 TS -20.3419 48.0347 main 0 0 P_________P_P_ SH221981 -20.3500 48.0425 15 -1 -20.3258 48.0191 1 16 -20.3500 48.0425 TC 15 4 40
1981061S22047 1981 19 SI MM JOHANNE 1981-03-02 18:00:00 TS -20.1858 48.1849 main 0 0 O_________P_O_ jtwc_sh SH221981 -20.2000 48.2000 15 -1 -20.1573 48.1546 1 17 -20.2000 48.2000 TC 15 4 39
1981061S22047 1981 19 SI MM JOHANNE 1981-03-02 21:00:00 TS -20.0000 48.3326 main 0 0 P_________P_P_ SH221981 -20.0075 48.3425 17 -1 -19.9852 48.3128 1 18 -20.0075 48.3425 TC 17 5 37
1981061S22047 1981 19 SI MM JOHANNE 1981-03-03 00:00:00 TS -19.8000 48.5000 main 0 0 O_________O_O_ jtwc_sh SH221981 -19.8000 48.5000 20 -1 -19.8000 48.5000 1 20 -19.8000 48.5000 TC 20 5 40
1981061S22047 1981 19 SI MM JOHANNE 1981-03-03 03:00:00 TS -19.6014 48.6866 main 0 0 P_________P_P_ SH221981 -19.6074 48.6774 20 -1 -19.5893 48.7049 1 20 -19.6074 48.6774 TC 20 6 43
1981061S22047 1981 19 SI MM JOHANNE 1981-03-03 06:00:00 TS -19.3883 48.9133 main 0 0 O_________P_O_ jtwc_sh SH221981 -19.4000 48.9000 20 -1 -19.3648 48.9399 1 20 -19.4000 48.9000 TC 20 7 46
1981061S22047 1981 19 SI MM JOHANNE 1981-03-03 09:00:00 TS -19.1443 49.1866 main 15 15 P_________P_P_ SH221981 -19.1500 49.1775 20 -1 -19.1329 49.2049 1 20 -19.1500 49.1775 TC 20 7 49
1981061S22047 1981 19 SI MM JOHANNE 1981-03-03 12:00:00 TS -18.9000 49.5000 main 38 38 O_________O_O_ jtwc_sh SH221981 -18.9000 49.5000 20 -1 -18.9000 49.5000 1 20 -18.9000 49.5000 TC 20 8 53
1981061S22047 1981 19 SI MM JOHANNE 1981-03-03 15:00:00 TS -18.6876 49.8340 main 62 62 P_________P_P_ SH221981 -18.7000 49.8424 20 -1 -18.6628 49.8172 1 21 -18.7000 49.8424 TC 20 8 57
1981061S22047 1981 19 SI MM JOHANNE 1981-03-03 18:00:00 TS -18.4758 50.1875 main 90 87 O_________P_O_ jtwc_sh SH221981 -18.5000 50.2000 20 -1 -18.4275 50.1626 1 22 -18.5000 50.2000 TC 20 8 56
1981061S22047 1981 19 SI MM JOHANNE 1981-03-03 21:00:00 TS -18.2344 50.5372 main 116 116 P_________P_P_ SH221981 -18.2499 50.5425 22 -1 -18.2034 50.5266 1 23 -18.2499 50.5425 TC 22 8 55
1981061S22047 1981 19 SI MM JOHANNE 1981-03-04 00:00:00 TS -18.0000 50.9000 main 151 151 O_________O_O_ jtwc_sh SH221981 -18.0000 50.9000 25 -1 -18.0000 50.9000 1 25 -18.0000 50.9000 TC 25 9 58
1981061S22047 1981 19 SI MM JOHANNE 1981-03-04 03:00:00 TS -17.7796 51.2948 main 190 190 P_________P_P_ SH221981 -17.7775 51.3000 25 -1 -17.7838 51.2843 1 25 -17.7775 51.3000 TC 25 9 64
1981061S22047 1981 19 SI MM JOHANNE 1981-03-04 06:00:00 TS -17.6293 51.7148 reunion main 220 220 O____O____P_O_ jtwc_sh SH221981 -17.6000 51.7000 25 -1 -18.0000 52.0000 2 9.90000 -17.5951 51.6730 1 25 -17.6000 51.7000 TC 25 8 73
1981061S22047 1981 19 SI MM JOHANNE 1981-03-04 09:00:00 TS -17.5432 52.1053 main 256 256 P____P____P_P_ SH221981 -17.4699 52.0649 25 -1 -18.0052 52.3775 2 -17.4588 52.0501 1 25 -17.4699 52.0649 TC 25 7 81
1981061S22047 1981 19 SI MM JOHANNE 1981-03-04 12:00:00 TS -17.5200 52.4600 reunion main 296 296 O____O____O_O_ jtwc_sh SH221981 -17.4000 52.4000 25 -1 -18.0000 52.7000 99 9.90000 -17.4000 52.4000 1 25 -17.4000 52.4000 TC 25 6 88
1981061S22047 1981 19 SI MM JOHANNE 1981-03-04 15:00:00 TS -17.5222 52.7731 main 323 323 P____P____P_P_ SH221981 -17.3475 52.7151 25 -1 -17.9848 52.9426 99 -17.4092 52.7196 1 26 -17.3475 52.7151 TC 25 6 96
1981061S22047 1981 19 SI MM JOHANNE 1981-03-04 18:00:00 TS -17.5749 53.0524 reunion main 356 356 O____O____P_O_ jtwc_sh SH221981 -17.4000 53.0000 25 -1 -18.0000 53.2000 99 9.90000 -17.4998 53.0096 1 27 -17.4000 53.0000 TC 25 6 111
1981061S22047 1981 19 SI MM JOHANNE 1981-03-04 21:00:00 TS -17.7327 53.3555 main 390 379 P____P____P_P_ SH221981 -17.5975 53.2724 27 -1 -18.0702 53.6074 99 -17.6655 53.2699 1 28 -17.5975 53.2724 TC 27 7 126
1981061S22047 1981 19 SI MM JOHANNE 1981-03-05 00:00:00 TS -17.9750 53.6250 reunion main 379 350 O____O____O_O_ jtwc_sh SH221981 -17.9000 53.5000 30 -1 -18.2000 54.0000 99 9.90000 -17.9000 53.5000 1 30 -17.9000 53.5000 TC 30 7 141
1981061S22047 1981 19 SI MM JOHANNE 1981-03-05 03:00:00 TS -18.2561 53.8006 main 340 305 P____P____P_P_ SH221981 -18.2349 53.6576 30 -1 -18.3698 54.2152 99 -18.1849 53.6718 1 31 -18.2349 53.6576 TC 30 7 153
1981061S22047 1981 19 SI MM JOHANNE 1981-03-05 06:00:00 TS -18.5830 53.9552 reunion main 300 261 O____O____P_O_ jtwc_sh SH221981 -18.6000 53.8000 30 -1 -18.6000 54.4000 3 9.90000 -18.5318 53.8209 1 32 -18.6000 53.8000 TC 30 8 153
1981061S22047 1981 19 SI MM JOHANNE 1981-03-05 09:00:00 TS -18.9207 54.1637 main 261 212 P____P____P_P_ SH221981 -18.9499 53.9776 32 -1 -18.8701 54.7149 3 -18.9129 53.9845 1 33 -18.9499 53.9776 TC 32 8 149
1981061S22047 1981 19 SI MM JOHANNE 1981-03-05 12:00:00 TS -19.2750 54.4000 reunion main 212 172 O____O____O_O_ jtwc_sh SH221981 -19.3000 54.2000 35 0 -19.2000 55.0000 99 9.90000 -19.3000 54.2000 2 35 -19.3000 54.2000 TC 35 8 149
1981061S22047 1981 19 SI MM JOHANNE 1981-03-05 15:00:00 TS -19.6325 54.6204 main 172 119 P____P____P_P_ SH221981 -19.6499 54.4627 35 0 -19.5847 55.0707 99 -19.6456 54.4856 2 36 -19.6499 54.4627 TC 35 9 147
1981061S22047 1981 19 SI MM JOHANNE 1981-03-05 18:00:00 TS -19.9980 54.9078 reunion main 119 78 O____O____P_O_ jtwc_sh SH221981 -20.0000 54.8000 35 0 -20.0000 55.2000 99 9.90000 -19.9919 54.8310 2 37 -20.0000 54.8000 TC 35 10 138
1981061S22047 1981 19 SI MM JOHANNE 1981-03-05 21:00:00 TS -20.3644 55.3327 main 67 33 P____P____P_P_ SH221981 -20.3499 55.2127 37 0 -20.4155 55.6695 99 -20.3422 55.2359 2 38 -20.3499 55.2127 TC 37 11 130
1981061S22047 1981 19 SI MM JOHANNE 1981-03-06 00:00:00 TS -20.7250 55.8250 reunion main 35 30 O____O____O_O_ jtwc_sh SH221981 -20.7000 55.7000 40 0 -20.8000 56.2000 99 9.90000 -20.7000 55.7000 2 40 -20.7000 55.7000 TC 40 11 128
1981061S22047 1981 19 SI MM JOHANNE 1981-03-06 03:00:00 TS -21.0519 56.2860 main 51 51 P____P____P_P_ SH221981 -21.0424 56.2278 42 0 -21.0920 56.4934 99 -21.0309 56.1951 2 43 -21.0424 56.2278 TC 42 11 127
1981061S22047 1981 19 SI MM JOHANNE 1981-03-06 06:00:00 TS -21.3936 56.7871 reunion main 104 104 O____O____P_O_ jtwc_sh SH221981 -21.4000 56.8000 45 0 -21.4000 56.8000 3 9.90000 -21.3744 56.7482 2 47 -21.4000 56.8000 TC 45 12 126
1981061S22047 1981 19 SI MM JOHANNE 1981-03-06 09:00:00 TS -21.7731 57.3516 main 145 145 P____P____P_P_ SH221981 -21.7622 57.3783 50 0 -21.8125 57.2977 3 -21.7556 57.3521 2 51 -21.7622 57.3783 TC 50 14 127
1981061S22047 1981 19 SI MM JOHANNE 1981-03-06 12:00:00 TS -22.2250 57.9750 reunion main 192 192 O____O____O_O_ jtwc_sh SH221981 -22.2000 58.0000 55 0 -22.3000 57.9000 99 9.90000 -22.2000 58.0000 2 55 -22.2000 58.0000 TC 55 16 131
1981061S22047 1981 19 SI MM JOHANNE 1981-03-06 15:00:00 TS -22.7815 58.6258 main 273 273 P____P____P_P_ SH221981 -22.7698 58.6777 57 0 -22.8193 58.4911 99 -22.7669 58.6566 2 57 -22.7698 58.6777 TC 57 17 133
1981061S22047 1981 19 SI MM JOHANNE 1981-03-06 18:00:00 TS -23.3978 59.3397 reunion main 363 363 O____O____P_O_ jtwc_sh SH221981 -23.4000 59.4000 60 0 -23.4000 59.2000 99 9.90000 -23.3911 59.3589 2 60 -23.4000 59.4000 TC 60 19 132
1981061S22047 1981 19 SI MM JOHANNE 1981-03-06 21:00:00 TS -24.0322 60.1168 main 462 462 P____P____P_P_ SH221981 -24.0220 60.1279 62 0 -24.0652 60.1044 99 -24.0197 60.1069 2 62 -24.0220 60.1279 TC 62 19 130
1981061S22047 1981 19 SI MM JOHANNE 1981-03-07 00:00:00 TS -24.6250 60.9500 reunion main 569 563 O____O____O_O_ jtwc_sh SH221981 -24.6000 60.9000 65 1 -24.7000 61.1000 99 9.90000 -24.6000 60.9000 4 65 -24.6000 60.9000 TC 65 19 125
1981061S22047 1981 19 SI MM JOHANNE 1981-03-07 03:00:00 TS -25.1118 61.8234 main 663 663 P____P____P_P_ SH221981 -25.0871 61.7281 67 1 -25.1950 62.0881 99 -25.0780 61.7493 4 67 -25.0871 61.7281 TC 67 18 119
1981061S22047 1981 19 SI MM JOHANNE 1981-03-07 06:00:00 TS -25.5245 62.7091 reunion main 757 757 O____O____P_O_ jtwc_sh SH221981 -25.5000 62.6000 70 1 -25.6000 63.0000 3 9.90000 -25.4978 62.6363 4 70 -25.5000 62.6000 TC 70 18 116
1981061S22047 1981 19 SI MM JOHANNE 1981-03-07 09:00:00 TS -25.8866 63.5602 main 852 852 P____P____P_P_ SH221981 -25.8722 63.5005 72 1 -25.9336 63.7095 3 -25.8686 63.5303 4 72 -25.8722 63.5005 TC 72 17 115
1981061S22047 1981 19 SI MM JOHANNE 1981-03-07 12:00:00 TS -26.2250 64.4000 reunion main 934 934 O____O____O_O_ jtwc_sh SH221981 -26.2000 64.4000 75 1 -26.3000 64.4000 99 9.90000 -26.2000 64.4000 4 75 -26.2000 64.4000 TC 75 17 115
1981061S22047 1981 19 SI MM JOHANNE 1981-03-07 15:00:00 TS -26.6019 65.2815 main 1031 1031 P____P____P_P_ SH221981 -26.5147 65.2803 77 1 -26.8427 65.2841 99 -26.5355 65.2812 4 75 -26.5147 65.2803 TC 77 17 115
1981061S22047 1981 19 SI MM JOHANNE 1981-03-07 18:00:00 TS -26.9583 66.1306 reunion main 1120 1120 O____O____P_O_ jtwc_sh SH221981 -26.8000 66.1000 80 1 -27.4000 66.2000 99 9.90000 -26.8333 66.1224 4 75 -26.8000 66.1000 TC 80 16 114
1981061S22047 1981 19 SI MM JOHANNE 1981-03-07 21:00:00 TS -27.2640 66.9146 main 1203 1203 P____P____P_P_ SH221981 -27.0723 66.8676 77 1 -27.8222 67.0459 99 -27.0892 66.8776 4 75 -27.0723 66.8676 TC 77 14 114
1981061S22047 1981 19 SI MM JOHANNE 1981-03-08 00:00:00 TS -27.5250 67.5750 reunion main 1272 1272 O____O____O_O_ jtwc_sh SH221981 -27.3000 67.5000 75 1 -28.2000 67.8000 99 9.90000 -27.3000 67.5000 4 75 -27.3000 67.5000 TC 75 12 116
1981061S22047 1981 19 SI MM JOHANNE 1981-03-08 03:00:00 TS -27.7684 68.0969 main 1332 1332 P____P____P_P_ SH221981 -27.4721 67.9753 72 1 -28.6598 68.4820 99 -27.4697 67.9548 4 71 -27.4721 67.9753 TC 72 9 118
1981061S22047 1981 19 SI MM JOHANNE 1981-03-08 06:00:00 ET -27.9499 68.4687 reunion main 1370 1370 O____O____P_O_ jtwc_sh SH221981 -27.6000 68.3000 70 1 -29.0000 69.0000 5 9.90000 -27.5996 68.2747 4 67 -27.6000 68.3000 EX 70 6 117
1981061S22047 1981 19 SI MM JOHANNE 1981-03-08 09:00:00 ET -28.0410 68.7159 main 1393 1393 P____P____P_P_ SH221981 -27.7073 68.5302 65 1 -29.0445 69.2960 5 -27.7049 68.5073 4 63 -27.7073 68.5302 EX 65 4 112
1981061S22047 1981 19 SI MM JOHANNE 1981-03-08 12:00:00 ET -28.1000 68.9000 reunion main 1415 1415 O____O____O_O_ jtwc_sh SH221981 -27.8000 68.7000 60 0 -29.0000 69.5000 99 9.90000 -27.8000 68.7000 2 60 -27.8000 68.7000 EX 60 4 113
1981061S22047 1981 19 SI MM JOHANNE 1981-03-08 15:00:00 ET -28.1959 69.1343 main 1438 1438 P____P____P_P_ SH221981 -27.9000 68.9000 57 0 -29.0850 69.7999 99 -27.8988 68.9372 2 56 -27.9000 68.9000 EX 57 5 116
1981061S22047 1981 19 SI MM JOHANNE 1981-03-08 18:00:00 ET -28.2980 69.3614 reunion main 1468 1468 O____O____P_O_ jtwc_sh SH221981 -28.0000 69.1000 55 0 -29.2000 70.1000 99 9.90000 -27.9922 69.1455 2 52 -28.0000 69.1000 EX 55 4 117
1981061S22047 1981 19 SI MM JOHANNE 1981-03-08 21:00:00 ET -28.3917 69.5778 main 1491 1491 P____P____P_P_ SH221981 -28.0925 69.3075 50 0 -29.2924 70.3651 99 -28.0895 69.3309 2 48 -28.0925 69.3075 EX 50 4 119
1981061S22047 1981 19 SI MM JOHANNE 1981-03-09 00:00:00 ET -28.5000 69.7750 reunion main 1513 1513 O____O____O_O_ jtwc_sh SH221981 -28.2000 69.5000 45 0 -29.4000 70.6000 99 9.90000 -28.2000 69.5000 2 45 -28.2000 69.5000 EX 45 4 126
1981061S22047 1981 19 SI MM JOHANNE 1981-03-09 03:00:00 ET -28.6357 69.9623 main 1536 1536 P____P____P_P_ SH221981 -28.3425 69.6575 42 0 -29.5425 70.8374 99 -28.3153 69.6967 2 41 -28.3425 69.6575 EX 42 4 133
1981061S22047 1981 19 SI MM JOHANNE 1981-03-09 06:00:00 ET -28.7869 70.1187 reunion main 1556 1556 O____O____P_O_ jtwc_sh SH221981 -28.5000 69.8000 40 0 -29.7000 71.0000 5 9.90000 -28.4475 69.8746 2 37 -28.5000 69.8000 EX 40 4 139
1981061S22047 1981 19 SI MM JOHANNE 1981-03-09 09:00:00 ET -28.9334 70.2513 main 1578 1578 P____P____P_P_ SH221981 -28.6350 69.9725 35 0 -29.8574 71.0451 5 -28.6060 70.0153 2 33 -28.6350 69.9725 EX 35 4 150
1981061S22047 1981 19 SI MM JOHANNE 1981-03-09 12:00:00 ET -29.1000 70.3250 reunion main 1591 1591 O____O____O_O_ jtwc_sh SH221981 -28.8000 70.1000 30 -1 -30.0000 71.0000 99 9.90000 -28.8000 70.1000 1 30 -28.8000 70.1000 EX 30 4 169
1981061S22047 1981 19 SI MM JOHANNE 1981-03-09 15:00:00 ET -29.3014 70.3340 main 1604 1604 P____P____P_P_ SH221981 -29.0275 70.1375 27 -1 -30.1149 70.9450 99 -29.0356 70.1162 1 28 -29.0275 70.1375 EX 27 5 0
1981061S22047 1981 19 SI MM JOHANNE 1981-03-09 18:00:00 ET -29.5781 70.3098 reunion main 1623 1623 O____O____P_O_ jtwc_sh SH221981 -29.3000 70.1000 25 -1 -30.2000 70.8000 99 9.90000 -29.3050 70.0759 1 27 -29.3000 70.1000 EX 25 6 191
1981061S22047 1981 19 SI MM JOHANNE 1981-03-09 21:00:00 ET -29.8725 70.2047 main 1635 1634 P____P____P_P_ SH221981 -29.5950 70.0127 25 -1 -30.2878 70.5002 99 -29.5969 69.9977 1 26 -29.5950 70.0127 EX 25 6 201
1981061S22047 1981 19 SI MM JOHANNE 1981-03-10 00:00:00 ET -30.1286 70.0714 reunion main 1641 1633 O____O____O_O_ jtwc_sh SH221981 -29.9000 69.9000 25 -1 -30.3000 70.2000 99 9.90000 -29.9000 69.9000 1 25 -29.9000 69.9000 EX 25 3 217
1981061S22047 1981 19 SI MM JOHANNE 1981-03-10 03:00:00 NR -30.1420 69.9649 main 1633 1619 _____P________ SH221981 -1 -30.1420 69.9649 99 1 EX 1 334
1981061S22047 1981 19 SI MM JOHANNE 1981-03-10 06:00:00 ET -30.0000 70.0000 reunion main 1627 1627 _____O________ -1 -30.0000 70.0000 5 9.90000 1 5 69
1981061S22047 1981 19 SI MM JOHANNE 1981-03-10 09:00:00 ET -29.9583 70.5115 main 1665 1665 _____P________ -1 -29.9583 70.5115 5 1 11 101
1981061S22047 1981 19 SI MM JOHANNE 1981-03-10 12:00:00 NR -30.2000 71.2000 reunion main 1732 1732 _____O________ -1 -30.2000 71.2000 99 9.90000 14 132
1981061S22047 1981 19 SI MM JOHANNE 1981-03-10 15:00:00 NR -30.9173 71.7287 main 1817 1817 _____P________ -1 -30.9173 71.7287 99 18 152
1981061S22047 1981 19 SI MM JOHANNE 1981-03-10 18:00:00 NR -31.8000 72.2000 reunion main 1910 1838 _____O________ -1 -31.8000 72.2000 99 9.90000 18 155
1981061S22047 1981 19 SI MM JOHANNE 1981-03-10 21:00:00 NR -32.5151 72.6151 main 1838 1777 _____P________ -1 -32.5151 72.6151 99 15 153
1981061S22047 1981 19 SI MM JOHANNE 1981-03-11 00:00:00 NR -33.1000 73.0000 reunion main 1777 _____O________ -1 -33.1000 73.0000 99 9.90000 13 151

IBTrACS Databaseについて

本データベースは、米国NOAAが公開する1842年以降の世界の熱帯低気圧のベストトラックデータアーカイブInternational Best Track Archive for Climate Stewardship (IBTrACS)を、ウェブで閲覧しやすい形式に変換したものです。

最終更新日:2021-12-01